Aérodrome :
LOGIN :

S'inscrire | Disclaimer

   EN    FR    IT 

 










Légende :    VFR   VFR Marginal   IFR   IFR Intensif   IFR Très Intensif
Visi : 
Plafond : 
>= 8 km
>= 3000ft
5 à 8 km
1000 à 3000 ft
1500m à 5 km
500 à 1000 ft
800 à 1500m
200 à 500 ft
< 800m
< 200 ft
Symboles :   Orages  Brouillard  Fortes neiges  Fortes précipitations  Vent > 20 kt
SIGMETs :   Divers  Orages  Givrage  Turbulence  Onde Orograph.  Cendres Volcan.







- Altitude de l'aérodrome : 12 ft
- Code IATA : NCE
- Voir les cartes d'approche


LFMN - Nice

DERNIER METAR :
  • 300300Z 33007KT CAVOK 11/01 Q1015 NOSIG

METARs EXPIRÉS :
  • 300230Z 33007KT CAVOK 11/01 Q1015 NOSIG
  • 300200Z 33007KT CAVOK 12/01 Q1015 NOSIG
  • 300130Z 34009KT CAVOK 12/01 Q1015 NOSIG
  • 300100Z 34008KT CAVOK 12/01 Q1015 NOSIG
  • 300030Z 34009KT CAVOK 12/01 Q1015 NOSIG

TAF TAF LFMN
Valide du 30 à 03h jusqu'au 01 à 09h UTC


300200Z 3003/0109 34010KT CAVOK
BECMG 3007/3009 12005KT
BECMG 3012/3015 15010KT FEW030 BKN090
BECMG 0100/0102 09008KT BKN020
BECMG 0104/0106 9999 RA SCT015 BKN025
ATIS : +33 4 93 17 21 16
Pas de NOTAMs connus pour ce terrain.
1 SIGMET publié pour la FIR Marseille (LFMM) :
 
Turbulence forte
LFMM SIGMET 1 VALID 300000/300400 LFPW
LFMM MARSEILLE FIR/UIR SEV TURB FCST WI N4315 E00230 - N4430 E00245 - N4530 E00430 - N4530 E00500 SFC/FL060 STNR INTSF=



MET'MAP, la Météo Aéronautique d'un coup d'oeil ! - Copyright ORBIFLY Décembre 2007 - Disclaimer

ORBIFLY MET'MAP TEAM :

Programmation & Développement : Alexandra Zaïnal
Conception & Développement : Baudouin d'Aumeries
Co-Programmation & Développement : Marc-Olivier Méhu
Soutien technique & logistique : Manuel Goepfert

Contact : metmap@orbifly.com




SOURCES & CREDITS :

   NOAA